sensor_id;sensor_type;location;lat;lon;timestamp;temperature;humidity
66594;DHT22;53450;42.584;23.366;2023-06-04T00:00:14;14.64;86.75
66594;DHT22;53450;42.584;23.366;2023-06-04T00:03:05;14.61;86.63
66594;DHT22;53450;42.584;23.366;2023-06-04T00:05:56;14.64;86.62
66594;DHT22;53450;42.584;23.366;2023-06-04T00:08:22;14.48;86.79
66594;DHT22;53450;42.584;23.366;2023-06-04T00:10:48;14.54;87.29
66594;DHT22;53450;42.584;23.366;2023-06-04T00:13:14;14.54;87.01
66594;DHT22;53450;42.584;23.366;2023-06-04T00:15:39;14.43;87.12
66594;DHT22;53450;42.584;23.366;2023-06-04T00:18:05;14.64;87.05
66594;DHT22;53450;42.584;23.366;2023-06-04T00:20:31;14.53;87.11
66594;DHT22;53450;42.584;23.366;2023-06-04T00:22:56;14.46;87.30
66594;DHT22;53450;42.584;23.366;2023-06-04T00:25:22;14.41;87.40
66594;DHT22;53450;42.584;23.366;2023-06-04T00:27:47;14.39;87.36
66594;DHT22;53450;42.584;23.366;2023-06-04T00:30:13;14.27;87.51
66594;DHT22;53450;42.584;23.366;2023-06-04T00:32:39;14.30;87.73
66594;DHT22;53450;42.584;23.366;2023-06-04T00:35:06;14.57;87.35
66594;DHT22;53450;42.584;23.366;2023-06-04T00:37:31;14.68;86.86
66594;DHT22;53450;42.584;23.366;2023-06-04T00:39:58;14.73;86.43
66594;DHT22;53450;42.584;23.366;2023-06-04T00:42:24;14.76;86.26
66594;DHT22;53450;42.584;23.366;2023-06-04T00:44:49;14.80;86.09
66594;DHT22;53450;42.584;23.366;2023-06-04T00:47:16;14.77;86.09
66594;DHT22;53450;42.584;23.366;2023-06-04T00:49:42;14.57;86.33
66594;DHT22;53450;42.584;23.366;2023-06-04T00:52:09;14.59;86.37
66594;DHT22;53450;42.584;23.366;2023-06-04T00:54:36;14.46;86.79
66594;DHT22;53450;42.584;23.366;2023-06-04T00:57:02;14.34;87.30
66594;DHT22;53450;42.584;23.366;2023-06-04T00:59:29;14.32;87.50
66594;DHT22;53450;42.584;23.366;2023-06-04T01:02:14;14.39;87.59
66594;DHT22;53450;42.584;23.366;2023-06-04T01:07:42;14.13;88.36
66594;DHT22;53450;42.584;23.366;2023-06-04T01:10:36;14.34;88.38
66594;DHT22;53450;42.584;23.366;2023-06-04T01:13:02;14.50;87.63
66594;DHT22;53450;42.584;23.366;2023-06-04T01:15:28;14.57;87.39
66594;DHT22;53450;42.584;23.366;2023-06-04T01:17:59;14.64;87.29
66594;DHT22;53450;42.584;23.366;2023-06-04T01:20:39;14.70;87.17
66594;DHT22;53450;42.584;23.366;2023-06-04T01:25:51;14.76;87.47
66594;DHT22;53450;42.584;23.366;2023-06-04T01:28:17;14.61;87.43
66594;DHT22;53450;42.584;23.366;2023-06-04T01:31:11;14.39;87.83
66594;DHT22;53450;42.584;23.366;2023-06-04T01:33:37;14.29;88.16
66594;DHT22;53450;42.584;23.366;2023-06-04T01:36:03;14.26;88.24
66594;DHT22;53450;42.584;23.366;2023-06-04T01:38:29;14.20;88.49
66594;DHT22;53450;42.584;23.366;2023-06-04T01:40:54;14.06;88.75
66594;DHT22;53450;42.584;23.366;2023-06-04T01:43:22;14.02;88.80
66594;DHT22;53450;42.584;23.366;2023-06-04T01:45:48;14.05;88.85
66594;DHT22;53450;42.584;23.366;2023-06-04T01:48:13;14.06;88.87
66594;DHT22;53450;42.584;23.366;2023-06-04T01:50:39;14.20;88.58
66594;DHT22;53450;42.584;23.366;2023-06-04T01:53:08;14.22;88.26
66594;DHT22;53450;42.584;23.366;2023-06-04T01:55:33;14.16;88.20
66594;DHT22;53450;42.584;23.366;2023-06-04T01:57:59;14.10;88.04
66594;DHT22;53450;42.584;23.366;2023-06-04T02:00:26;14.09;87.50
66594;DHT22;53450;42.584;23.366;2023-06-04T02:02:52;14.05;87.38
66594;DHT22;53450;42.584;23.366;2023-06-04T02:05:18;13.96;87.17
66594;DHT22;53450;42.584;23.366;2023-06-04T02:07:45;13.96;87.17
66594;DHT22;53450;42.584;23.366;2023-06-04T02:10:17;13.98;87.45
66594;DHT22;53450;42.584;23.366;2023-06-04T02:12:57;14.06;87.16
66594;DHT22;53450;42.584;23.366;2023-06-04T02:15:24;14.12;86.02
66594;DHT22;53450;42.584;23.366;2023-06-04T02:17:50;14.13;86.72
66594;DHT22;53450;42.584;23.366;2023-06-04T02:20:16;14.27;85.94
66594;DHT22;53450;42.584;23.366;2023-06-04T02:22:42;14.33;85.67
66594;DHT22;53450;42.584;23.366;2023-06-04T02:25:08;14.34;85.67
66594;DHT22;53450;42.584;23.366;2023-06-04T02:27:37;14.44;85.51
66594;DHT22;53450;42.584;23.366;2023-06-04T02:30:03;14.50;85.64
66594;DHT22;53450;42.584;23.366;2023-06-04T02:32:30;14.36;85.75
66594;DHT22;53450;42.584;23.366;2023-06-04T02:35:21;14.23;85.73
66594;DHT22;53450;42.584;23.366;2023-06-04T02:37:49;14.25;85.84
66594;DHT22;53450;42.584;23.366;2023-06-04T02:40:15;14.23;86.48
66594;DHT22;53450;42.584;23.366;2023-06-04T02:42:40;14.22;86.43
66594;DHT22;53450;42.584;23.366;2023-06-04T02:45:06;14.09;86.12
66594;DHT22;53450;42.584;23.366;2023-06-04T02:47:32;14.08;86.33
66594;DHT22;53450;42.584;23.366;2023-06-04T02:49:58;14.09;86.54
66594;DHT22;53450;42.584;23.366;2023-06-04T02:52:49;14.16;86.62
66594;DHT22;53450;42.584;23.366;2023-06-04T02:55:40;14.29;86.30
66594;DHT22;53450;42.584;23.366;2023-06-04T02:58:07;14.36;86.16
66594;DHT22;53450;42.584;23.366;2023-06-04T03:00:34;14.33;85.97
66594;DHT22;53450;42.584;23.366;2023-06-04T03:03:01;14.32;86.01
66594;DHT22;53450;42.584;23.366;2023-06-04T03:05:26;14.37;86.05
66594;DHT22;53450;42.584;23.366;2023-06-04T03:07:52;14.22;86.09
66594;DHT22;53450;42.584;23.366;2023-06-04T03:10:18;14.16;86.27
66594;DHT22;53450;42.584;23.366;2023-06-04T03:12:44;14.18;86.56
66594;DHT22;53450;42.584;23.366;2023-06-04T03:15:10;14.30;86.26
66594;DHT22;53450;42.584;23.366;2023-06-04T03:17:36;14.37;86.08
66594;DHT22;53450;42.584;23.366;2023-06-04T03:20:02;14.41;86.00
66594;DHT22;53450;42.584;23.366;2023-06-04T03:22:30;14.41;85.85
66594;DHT22;53450;42.584;23.366;2023-06-04T03:24:55;14.40;86.05
66594;DHT22;53450;42.584;23.366;2023-06-04T03:27:21;14.32;86.74
66594;DHT22;53450;42.584;23.366;2023-06-04T03:29:46;14.30;87.05
66594;DHT22;53450;42.584;23.366;2023-06-04T03:32:15;14.43;87.09
66594;DHT22;53450;42.584;23.366;2023-06-04T03:34:42;14.48;86.66
66594;DHT22;53450;42.584;23.366;2023-06-04T03:37:08;14.36;86.78
66594;DHT22;53450;42.584;23.366;2023-06-04T03:39:34;14.50;86.67
66594;DHT22;53450;42.584;23.366;2023-06-04T03:42:03;14.48;86.54
66594;DHT22;53450;42.584;23.366;2023-06-04T03:44:29;14.50;86.87
66594;DHT22;53450;42.584;23.366;2023-06-04T03:46:54;14.48;86.79
66594;DHT22;53450;42.584;23.366;2023-06-04T03:49:20;14.39;87.07
66594;DHT22;53450;42.584;23.366;2023-06-04T03:51:48;14.18;87.43
66594;DHT22;53450;42.584;23.366;2023-06-04T03:54:15;14.05;87.82
66594;DHT22;53450;42.584;23.366;2023-06-04T03:56:45;14.26;87.65
66594;DHT22;53450;42.584;23.366;2023-06-04T03:59:12;14.27;87.42
66594;DHT22;53450;42.584;23.366;2023-06-04T04:01:37;14.39;87.40
66594;DHT22;53450;42.584;23.366;2023-06-04T04:04:07;14.12;87.47
66594;DHT22;53450;42.584;23.366;2023-06-04T04:06:33;14.08;87.56
66594;DHT22;53450;42.584;23.366;2023-06-04T04:08:59;14.09;87.81
66594;DHT22;53450;42.584;23.366;2023-06-04T04:11:25;14.23;87.50
66594;DHT22;53450;42.584;23.366;2023-06-04T04:13:51;14.23;87.64
66594;DHT22;53450;42.584;23.366;2023-06-04T04:16:19;14.40;87.39
66594;DHT22;53450;42.584;23.366;2023-06-04T04:18:44;14.37;87.57
66594;DHT22;53450;42.584;23.366;2023-06-04T04:21:10;14.34;87.71
66594;DHT22;53450;42.584;23.366;2023-06-04T04:23:38;14.23;87.61
66594;DHT22;53450;42.584;23.366;2023-06-04T04:26:07;14.15;87.88
66594;DHT22;53450;42.584;23.366;2023-06-04T04:28:33;14.29;87.74
66594;DHT22;53450;42.584;23.366;2023-06-04T04:31:01;14.39;87.65
66594;DHT22;53450;42.584;23.366;2023-06-04T04:33:29;14.50;87.57
66594;DHT22;53450;42.584;23.366;2023-06-04T04:35:59;14.36;87.70
66594;DHT22;53450;42.584;23.366;2023-06-04T04:38:28;14.32;87.82
66594;DHT22;53450;42.584;23.366;2023-06-04T04:41:00;14.33;87.79
66594;DHT22;53450;42.584;23.366;2023-06-04T04:43:34;14.30;87.96
66594;DHT22;53450;42.584;23.366;2023-06-04T04:46:07;14.40;88.02
66594;DHT22;53450;42.584;23.366;2023-06-04T04:48:34;14.64;87.87
66594;DHT22;53450;42.584;23.366;2023-06-04T04:50:59;14.59;87.53
66594;DHT22;53450;42.584;23.366;2023-06-04T04:53:26;14.63;87.63
66594;DHT22;53450;42.584;23.366;2023-06-04T04:55:52;14.76;87.30
66594;DHT22;53450;42.584;23.366;2023-06-04T04:58:17;14.92;86.86
66594;DHT22;53450;42.584;23.366;2023-06-04T05:00:43;14.94;86.73
66594;DHT22;53450;42.584;23.366;2023-06-04T05:03:09;14.88;86.79
66594;DHT22;53450;42.584;23.366;2023-06-04T05:05:35;14.88;86.72
66594;DHT22;53450;42.584;23.366;2023-06-04T05:08:03;14.88;86.97
66594;DHT22;53450;42.584;23.366;2023-06-04T05:10:33;14.78;86.57
66594;DHT22;53450;42.584;23.366;2023-06-04T05:13:02;14.74;86.33
66594;DHT22;53450;42.584;23.366;2023-06-04T05:15:35;14.77;86.40
66594;DHT22;53450;42.584;23.366;2023-06-04T05:18:26;14.85;86.28
66594;DHT22;53450;42.584;23.366;2023-06-04T05:21:20;14.91;86.40
66594;DHT22;53450;42.584;23.366;2023-06-04T05:23:55;15.08;86.37
66594;DHT22;53450;42.584;23.366;2023-06-04T05:26:25;15.09;86.03
66594;DHT22;53450;42.584;23.366;2023-06-04T05:29:18;15.09;86.15
66594;DHT22;53450;42.584;23.366;2023-06-04T05:32:09;15.18;86.41
66594;DHT22;53450;42.584;23.366;2023-06-04T05:34:35;15.14;86.05
66594;DHT22;53450;42.584;23.366;2023-06-04T05:37:05;15.04;85.97
66594;DHT22;53450;42.584;23.366;2023-06-04T05:39:34;15.25;86.03
66594;DHT22;53450;42.584;23.366;2023-06-04T05:42:09;15.12;86.13
66594;DHT22;53450;42.584;23.366;2023-06-04T05:44:35;15.26;86.33
66594;DHT22;53450;42.584;23.366;2023-06-04T05:47:01;15.24;85.88
66594;DHT22;53450;42.584;23.366;2023-06-04T05:49:28;15.14;86.18
66594;DHT22;53450;42.584;23.366;2023-06-04T05:51:56;15.06;86.30
66594;DHT22;53450;42.584;23.366;2023-06-04T05:54:23;15.19;86.63
66594;DHT22;53450;42.584;23.366;2023-06-04T05:56:50;15.26;86.01
66594;DHT22;53450;42.584;23.366;2023-06-04T05:59:15;15.22;86.02
66594;DHT22;53450;42.584;23.366;2023-06-04T06:01:42;15.21;86.49
66594;DHT22;53450;42.584;23.366;2023-06-04T06:04:09;15.14;86.25
66594;DHT22;53450;42.584;23.366;2023-06-04T06:06:36;15.06;86.45
66594;DHT22;53450;42.584;23.366;2023-06-04T06:09:02;15.12;86.59
66594;DHT22;53450;42.584;23.366;2023-06-04T06:11:29;15.28;86.15
66594;DHT22;53450;42.584;23.366;2023-06-04T06:13:55;15.24;85.46
66594;DHT22;53450;42.584;23.366;2023-06-04T06:16:21;15.25;85.32
66594;DHT22;53450;42.584;23.366;2023-06-04T06:18:47;15.34;85.49
66594;DHT22;53450;42.584;23.366;2023-06-04T06:21:13;15.32;85.39
66594;DHT22;53450;42.584;23.366;2023-06-04T06:23:39;15.35;85.35
66594;DHT22;53450;42.584;23.366;2023-06-04T06:26:05;15.31;85.03
66594;DHT22;53450;42.584;23.366;2023-06-04T06:28:39;15.39;85.39
66594;DHT22;53450;42.584;23.366;2023-06-04T06:31:05;15.35;85.60
66594;DHT22;53450;42.584;23.366;2023-06-04T06:33:31;15.47;85.56
66594;DHT22;53450;42.584;23.366;2023-06-04T06:35:57;15.62;84.87
66594;DHT22;53450;42.584;23.366;2023-06-04T06:38:26;15.53;84.79
66594;DHT22;53450;42.584;23.366;2023-06-04T06:41:17;15.74;85.02
66594;DHT22;53450;42.584;23.366;2023-06-04T06:44:07;15.87;84.67
66594;DHT22;53450;42.584;23.366;2023-06-04T06:46:33;15.67;85.08
66594;DHT22;53450;42.584;23.366;2023-06-04T06:48:59;15.69;84.45
66594;DHT22;53450;42.584;23.366;2023-06-04T06:51:25;15.74;85.22
66594;DHT22;53450;42.584;23.366;2023-06-04T06:53:50;15.70;84.31
66594;DHT22;53450;42.584;23.366;2023-06-04T06:56:41;15.59;84.55
66594;DHT22;53450;42.584;23.366;2023-06-04T06:59:31;15.53;84.76
66594;DHT22;53450;42.584;23.366;2023-06-04T07:01:57;15.49;85.02
66594;DHT22;53450;42.584;23.366;2023-06-04T07:04:23;15.63;84.86
66594;DHT22;53450;42.584;23.366;2023-06-04T07:06:48;15.77;84.16
66594;DHT22;53450;42.584;23.366;2023-06-04T07:09:14;15.87;83.70
66594;DHT22;53450;42.584;23.366;2023-06-04T07:12:05;16.05;83.32
66594;DHT22;53450;42.584;23.366;2023-06-04T07:14:56;16.22;83.89
66594;DHT22;53450;42.584;23.366;2023-06-04T07:17:22;16.29;83.10
66594;DHT22;53450;42.584;23.366;2023-06-04T07:19:47;16.21;82.84
66594;DHT22;53450;42.584;23.366;2023-06-04T07:22:13;16.36;84.14
66594;DHT22;53450;42.584;23.366;2023-06-04T07:24:41;16.59;82.78
66594;DHT22;53450;42.584;23.366;2023-06-04T07:27:14;16.53;82.27
66594;DHT22;53450;42.584;23.366;2023-06-04T07:29:40;16.65;82.21
66594;DHT22;53450;42.584;23.366;2023-06-04T07:32:08;16.66;81.92
66594;DHT22;53450;42.584;23.366;2023-06-04T07:34:33;16.76;81.18
66594;DHT22;53450;42.584;23.366;2023-06-04T07:36:59;16.69;80.88
66594;DHT22;53450;42.584;23.366;2023-06-04T07:39:24;16.76;80.83
66594;DHT22;53450;42.584;23.366;2023-06-04T07:41:50;16.80;80.98
66594;DHT22;53450;42.584;23.366;2023-06-04T07:44:15;16.76;80.94
66594;DHT22;53450;42.584;23.366;2023-06-04T07:46:41;16.75;80.88
66594;DHT22;53450;42.584;23.366;2023-06-04T07:49:08;16.92;81.21
66594;DHT22;53450;42.584;23.366;2023-06-04T07:51:33;16.86;80.65
66594;DHT22;53450;42.584;23.366;2023-06-04T07:54:25;17.03;81.58
66594;DHT22;53450;42.584;23.366;2023-06-04T07:57:16;16.87;79.89
66594;DHT22;53450;42.584;23.366;2023-06-04T07:59:42;16.92;80.56
66594;DHT22;53450;42.584;23.366;2023-06-04T08:02:08;16.92;80.21
66594;DHT22;53450;42.584;23.366;2023-06-04T08:04:33;16.97;80.83
66594;DHT22;53450;42.584;23.366;2023-06-04T08:06:59;16.86;81.67
66594;DHT22;53450;42.584;23.366;2023-06-04T08:09:25;16.82;81.57
66594;DHT22;53450;42.584;23.366;2023-06-04T08:11:50;16.71;81.62
66594;DHT22;53450;42.584;23.366;2023-06-04T08:14:16;16.62;79.83
66594;DHT22;53450;42.584;23.366;2023-06-04T08:16:42;16.63;79.36
66594;DHT22;53450;42.584;23.366;2023-06-04T08:19:08;16.63;79.41
66594;DHT22;53450;42.584;23.366;2023-06-04T08:21:34;16.59;79.36
66594;DHT22;53450;42.584;23.366;2023-06-04T08:23:59;16.55;79.11
66594;DHT22;53450;42.584;23.366;2023-06-04T08:26:25;16.56;80.23
66594;DHT22;53450;42.584;23.366;2023-06-04T08:28:52;16.62;79.76
66594;DHT22;53450;42.584;23.366;2023-06-04T08:31:18;16.76;79.95
66594;DHT22;53450;42.584;23.366;2023-06-04T08:33:47;16.76;78.65
66594;DHT22;53450;42.584;23.366;2023-06-04T08:36:13;16.75;79.28
66594;DHT22;53450;42.584;23.366;2023-06-04T08:38:39;16.80;79.52
66594;DHT22;53450;42.584;23.366;2023-06-04T08:41:15;16.96;79.23
66594;DHT22;53450;42.584;23.366;2023-06-04T08:43:42;17.07;78.46
66594;DHT22;53450;42.584;23.366;2023-06-04T08:46:11;17.20;78.62
66594;DHT22;53450;42.584;23.366;2023-06-04T08:48:37;17.27;78.88
66594;DHT22;53450;42.584;23.366;2023-06-04T08:51:05;17.52;77.74
66594;DHT22;53450;42.584;23.366;2023-06-04T08:54:00;17.50;76.17
66594;DHT22;53450;42.584;23.366;2023-06-04T08:56:26;17.60;76.66
66594;DHT22;53450;42.584;23.366;2023-06-04T08:59:02;17.68;76.82
66594;DHT22;53450;42.584;23.366;2023-06-04T09:01:33;17.86;76.67
66594;DHT22;53450;42.584;23.366;2023-06-04T09:04:03;17.91;74.43
66594;DHT22;53450;42.584;23.366;2023-06-04T09:06:34;17.75;74.43
66594;DHT22;53450;42.584;23.366;2023-06-04T09:09:05;17.69;75.92
66594;DHT22;53450;42.584;23.366;2023-06-04T09:12:15;17.85;76.55
66594;DHT22;53450;42.584;23.366;2023-06-04T09:14:35;17.93;75.26
66594;DHT22;53450;42.584;23.366;2023-06-04T09:17:00;17.74;74.69
66594;DHT22;53450;42.584;23.366;2023-06-04T09:19:26;17.55;76.03
66594;DHT22;53450;42.584;23.366;2023-06-04T09:24:18;17.51;76.14
66594;DHT22;53450;42.584;23.366;2023-06-04T09:26:44;17.51;75.71
66594;DHT22;53450;42.584;23.366;2023-06-04T09:29:10;17.62;76.79
66594;DHT22;53450;42.584;23.366;2023-06-04T09:31:36;17.85;75.92
66594;DHT22;53450;42.584;23.366;2023-06-04T09:34:03;18.06;75.31
66594;DHT22;53450;42.584;23.366;2023-06-04T09:36:35;18.10;74.01
66594;DHT22;53450;42.584;23.366;2023-06-04T09:39:04;18.14;73.97
66594;DHT22;53450;42.584;23.366;2023-06-04T09:41:39;18.60;74.63
66594;DHT22;53450;42.584;23.366;2023-06-04T09:44:05;19.05;71.82
66594;DHT22;53450;42.584;23.366;2023-06-04T09:46:31;19.02;70.99
66594;DHT22;53450;42.584;23.366;2023-06-04T09:49:02;19.11;71.06
66594;DHT22;53450;42.584;23.366;2023-06-04T09:51:28;19.18;71.28
66594;DHT22;53450;42.584;23.366;2023-06-04T09:54:12;19.30;70.21
66594;DHT22;53450;42.584;23.366;2023-06-04T09:56:41;19.56;71.79
66594;DHT22;53450;42.584;23.366;2023-06-04T09:59:09;19.46;71.39
66594;DHT22;53450;42.584;23.366;2023-06-04T10:01:38;19.57;70.97
66594;DHT22;53450;42.584;23.366;2023-06-04T10:04:07;19.35;70.72
66594;DHT22;53450;42.584;23.366;2023-06-04T10:06:35;19.08;71.38
66594;DHT22;53450;42.584;23.366;2023-06-04T10:09:10;18.94;71.40
66594;DHT22;53450;42.584;23.366;2023-06-04T10:11:47;19.01;72.61
66594;DHT22;53450;42.584;23.366;2023-06-04T10:14:29;18.89;71.49
66594;DHT22;53450;42.584;23.366;2023-06-04T10:16:58;19.14;72.19
66594;DHT22;53450;42.584;23.366;2023-06-04T10:19:24;19.08;71.18
66594;DHT22;53450;42.584;23.366;2023-06-04T10:21:50;19.15;71.18
66594;DHT22;53450;42.584;23.366;2023-06-04T10:24:16;19.11;70.61
66594;DHT22;53450;42.584;23.366;2023-06-04T10:26:42;19.01;69.99
66594;DHT22;53450;42.584;23.366;2023-06-04T10:29:08;19.19;71.26
66594;DHT22;53450;42.584;23.366;2023-06-04T10:31:36;19.15;70.91
66594;DHT22;53450;42.584;23.366;2023-06-04T10:34:02;18.92;71.00
66594;DHT22;53450;42.584;23.366;2023-06-04T10:36:55;18.88;72.80
66594;DHT22;53450;42.584;23.366;2023-06-04T10:39:27;18.91;71.79
66594;DHT22;53450;42.584;23.366;2023-06-04T10:42:03;19.07;71.71
66594;DHT22;53450;42.584;23.366;2023-06-04T10:44:44;19.16;71.50
66594;DHT22;53450;42.584;23.366;2023-06-04T10:47:23;19.22;71.43
66594;DHT22;53450;42.584;23.366;2023-06-04T10:49:52;19.33;70.48
66594;DHT22;53450;42.584;23.366;2023-06-04T10:52:18;19.33;69.95
66594;DHT22;53450;42.584;23.366;2023-06-04T10:54:45;19.28;69.06
66594;DHT22;53450;42.584;23.366;2023-06-04T11:00:03;19.55;69.81
66594;DHT22;53450;42.584;23.366;2023-06-04T11:03:01;19.62;69.90
66594;DHT22;53450;42.584;23.366;2023-06-04T11:05:40;19.69;69.45
66594;DHT22;53450;42.584;23.366;2023-06-04T11:08:06;19.40;71.11
66594;DHT22;53450;42.584;23.366;2023-06-04T11:10:35;19.28;71.30
66594;DHT22;53450;42.584;23.366;2023-06-04T11:13:04;19.45;70.23
66594;DHT22;53450;42.584;23.366;2023-06-04T11:15:45;19.35;70.35
66594;DHT22;53450;42.584;23.366;2023-06-04T11:18:19;19.33;70.68
66594;DHT22;53450;42.584;23.366;2023-06-04T11:20:46;19.46;70.91
66594;DHT22;53450;42.584;23.366;2023-06-04T11:23:13;19.46;69.86
66594;DHT22;53450;42.584;23.366;2023-06-04T11:25:40;19.50;69.81
66594;DHT22;53450;42.584;23.366;2023-06-04T11:28:08;19.62;69.21
66594;DHT22;53450;42.584;23.366;2023-06-04T11:30:39;19.29;69.94
66594;DHT22;53450;42.584;23.366;2023-06-04T11:33:05;19.45;69.45
66594;DHT22;53450;42.584;23.366;2023-06-04T11:35:39;19.50;69.56
66594;DHT22;53450;42.584;23.366;2023-06-04T11:38:05;19.32;70.06
66594;DHT22;53450;42.584;23.366;2023-06-04T11:40:31;19.07;70.96
66594;DHT22;53450;42.584;23.366;2023-06-04T11:42:57;19.12;70.79
66594;DHT22;53450;42.584;23.366;2023-06-04T11:45:23;18.84;70.83
66594;DHT22;53450;42.584;23.366;2023-06-04T11:47:53;18.56;71.41
66594;DHT22;53450;42.584;23.366;2023-06-04T11:50:27;18.49;71.80
66594;DHT22;53450;42.584;23.366;2023-06-04T11:52:53;18.78;72.48
66594;DHT22;53450;42.584;23.366;2023-06-04T11:55:19;18.65;71.66
66594;DHT22;53450;42.584;23.366;2023-06-04T11:57:49;18.79;71.88
66594;DHT22;53450;42.584;23.366;2023-06-04T12:00:18;18.79;72.11
66594;DHT22;53450;42.584;23.366;2023-06-04T12:07:01;18.58;72.24
66594;DHT22;53450;42.584;23.366;2023-06-04T12:09:32;18.41;72.67
66594;DHT22;53450;42.584;23.366;2023-06-04T12:24:10;18.10;73.66
66594;DHT22;53450;42.584;23.366;2023-06-04T12:27:06;18.22;74.11
66594;DHT22;53450;42.584;23.366;2023-06-04T12:29:40;18.13;72.60
66594;DHT22;53450;42.584;23.366;2023-06-04T12:32:17;18.12;73.32
66594;DHT22;53450;42.584;23.366;2023-06-04T12:34:58;18.23;73.25
66594;DHT22;53450;42.584;23.366;2023-06-04T12:37:26;18.33;72.54
66594;DHT22;53450;42.584;23.366;2023-06-04T12:40:26;18.51;71.98
66594;DHT22;53450;42.584;23.366;2023-06-04T12:42:58;18.61;71.16
66594;DHT22;53450;42.584;23.366;2023-06-04T12:48:01;18.81;70.25
66594;DHT22;53450;42.584;23.366;2023-06-04T12:50:36;18.67;71.17
66594;DHT22;53450;42.584;23.366;2023-06-04T12:53:04;18.91;71.45
66594;DHT22;53450;42.584;23.366;2023-06-04T12:56:08;18.70;70.99
66594;DHT22;53450;42.584;23.366;2023-06-04T12:59:43;18.53;70.55
66594;DHT22;53450;42.584;23.366;2023-06-04T13:02:55;18.44;71.40
66594;DHT22;53450;42.584;23.366;2023-06-04T13:05:42;18.49;71.56
66594;DHT22;53450;42.584;23.366;2023-06-04T13:08:07;18.58;72.11
66594;DHT22;53450;42.584;23.366;2023-06-04T13:10:33;18.67;71.19
66594;DHT22;53450;42.584;23.366;2023-06-04T13:12:59;18.63;71.13
66594;DHT22;53450;42.584;23.366;2023-06-04T13:15:24;18.71;71.35
66594;DHT22;53450;42.584;23.366;2023-06-04T13:17:50;18.67;71.57
66594;DHT22;53450;42.584;23.366;2023-06-04T13:20:15;18.46;71.64
66594;DHT22;53450;42.584;23.366;2023-06-04T13:22:41;18.50;71.53
66594;DHT22;53450;42.584;23.366;2023-06-04T13:25:09;18.63;72.25
66594;DHT22;53450;42.584;23.366;2023-06-04T13:27:34;18.49;71.69
66594;DHT22;53450;42.584;23.366;2023-06-04T13:30:00;18.54;72.28
66594;DHT22;53450;42.584;23.366;2023-06-04T13:32:25;18.57;72.65
66594;DHT22;53450;42.584;23.366;2023-06-04T13:34:51;18.54;72.15
66594;DHT22;53450;42.584;23.366;2023-06-04T13:37:42;18.47;72.01
66594;DHT22;53450;42.584;23.366;2023-06-04T13:40:07;18.34;72.14
66594;DHT22;53450;42.584;23.366;2023-06-04T13:42:33;18.44;72.43
66594;DHT22;53450;42.584;23.366;2023-06-04T13:44:59;18.41;72.43
66594;DHT22;53450;42.584;23.366;2023-06-04T13:47:25;18.37;72.14
66594;DHT22;53450;42.584;23.366;2023-06-04T13:49:51;18.44;72.11
66594;DHT22;53450;42.584;23.366;2023-06-04T13:52:16;18.34;72.30
66594;DHT22;53450;42.584;23.366;2023-06-04T13:54:43;18.32;72.48
66594;DHT22;53450;42.584;23.366;2023-06-04T13:57:08;18.34;73.20
66594;DHT22;53450;42.584;23.366;2023-06-04T13:59:39;18.41;73.69
66594;DHT22;53450;42.584;23.366;2023-06-04T14:02:06;18.32;72.01
66594;DHT22;53450;42.584;23.366;2023-06-04T14:04:32;18.36;72.65
66594;DHT22;53450;42.584;23.366;2023-06-04T14:06:58;18.39;72.29
66594;DHT22;53450;42.584;23.366;2023-06-04T14:09:24;18.29;73.12
66594;DHT22;53450;42.584;23.366;2023-06-04T14:11:49;18.26;72.85
66594;DHT22;53450;42.584;23.366;2023-06-04T14:14:19;18.36;73.18
66594;DHT22;53450;42.584;23.366;2023-06-04T14:16:47;18.34;73.23
66594;DHT22;53450;42.584;23.366;2023-06-04T14:19:13;18.50;73.15
66594;DHT22;53450;42.584;23.366;2023-06-04T14:21:40;18.49;72.67
66594;DHT22;53450;42.584;23.366;2023-06-04T14:24:06;18.56;73.15
66594;DHT22;53450;42.584;23.366;2023-06-04T14:26:32;18.51;72.63
66594;DHT22;53450;42.584;23.366;2023-06-04T14:29:00;18.53;72.18
66594;DHT22;53450;42.584;23.366;2023-06-04T14:31:26;18.54;72.64
66594;DHT22;53450;42.584;23.366;2023-06-04T14:34:17;18.68;71.86
66594;DHT22;53450;42.584;23.366;2023-06-04T14:36:42;18.77;71.76
66594;DHT22;53450;42.584;23.366;2023-06-04T14:39:08;18.84;71.66
66594;DHT22;53450;42.584;23.366;2023-06-04T14:41:34;18.87;71.98
66594;DHT22;53450;42.584;23.366;2023-06-04T14:43:59;18.87;72.00
66594;DHT22;53450;42.584;23.366;2023-06-04T14:46:26;19.02;71.93
66594;DHT22;53450;42.584;23.366;2023-06-04T14:48:52;19.04;71.54
66594;DHT22;53450;42.584;23.366;2023-06-04T14:51:20;19.09;71.53
66594;DHT22;53450;42.584;23.366;2023-06-04T14:53:47;18.91;71.61
66594;DHT22;53450;42.584;23.366;2023-06-04T14:56:14;18.83;71.40
66594;DHT22;53450;42.584;23.366;2023-06-04T14:58:39;18.78;71.69
66594;DHT22;53450;42.584;23.366;2023-06-04T15:01:05;18.53;72.39
66594;DHT22;53450;42.584;23.366;2023-06-04T15:03:37;18.50;73.06
66594;DHT22;53450;42.584;23.366;2023-06-04T15:06:03;18.63;72.20
66594;DHT22;53450;42.584;23.366;2023-06-04T15:08:29;18.81;72.02
66594;DHT22;53450;42.584;23.366;2023-06-04T15:10:55;18.87;71.88
66594;DHT22;53450;42.584;23.366;2023-06-04T15:13:20;18.91;71.57
66594;DHT22;53450;42.584;23.366;2023-06-04T15:15:46;18.94;71.62
66594;DHT22;53450;42.584;23.366;2023-06-04T15:18:12;18.99;71.35
66594;DHT22;53450;42.584;23.366;2023-06-04T15:20:38;18.94;70.70
66594;DHT22;53450;42.584;23.366;2023-06-04T15:23:04;18.98;70.52
66594;DHT22;53450;42.584;23.366;2023-06-04T15:25:30;19.01;70.65
66594;DHT22;53450;42.584;23.366;2023-06-04T15:27:56;18.95;71.17
66594;DHT22;53450;42.584;23.366;2023-06-04T15:30:21;18.83;71.70
66594;DHT22;53450;42.584;23.366;2023-06-04T15:32:47;18.85;72.15
66594;DHT22;53450;42.584;23.366;2023-06-04T15:35:13;18.75;71.98
66594;DHT22;53450;42.584;23.366;2023-06-04T15:37:38;18.88;72.22
66594;DHT22;53450;42.584;23.366;2023-06-04T15:40:04;18.77;72.34
66594;DHT22;53450;42.584;23.366;2023-06-04T15:42:32;18.83;72.07
66594;DHT22;53450;42.584;23.366;2023-06-04T15:44:58;18.77;72.42
66594;DHT22;53450;42.584;23.366;2023-06-04T15:47:23;18.84;71.97
66594;DHT22;53450;42.584;23.366;2023-06-04T15:49:49;18.75;72.12
66594;DHT22;53450;42.584;23.366;2023-06-04T15:52:15;18.63;72.86
66594;DHT22;53450;42.584;23.366;2023-06-04T15:54:42;18.58;72.62
66594;DHT22;53450;42.584;23.366;2023-06-04T15:57:08;18.53;72.26
66594;DHT22;53450;42.584;23.366;2023-06-04T15:59:33;18.44;72.57